createdAt,value
2017-12-03T00:01:26.192Z,56.27
2017-12-03T00:03:52.046Z,53.15
2017-12-03T00:06:21.145Z,56.67
2017-12-03T00:08:46.972Z,54.17
2017-12-03T00:11:12.911Z,55.63
2017-12-03T00:13:38.748Z,49.80
2017-12-03T00:16:04.585Z,58.50
2017-12-03T00:18:32.223Z,46.90
2017-12-03T00:20:58.006Z,54.85
2017-12-03T00:23:27.625Z,52.33
2017-12-03T00:25:53.471Z,55.50
2017-12-03T00:28:22.539Z,52.60
2017-12-03T00:30:48.322Z,52.83
2017-12-03T00:33:17.361Z,51.13
2017-12-03T00:35:43.165Z,55.03
2017-12-03T00:38:12.317Z,58.07
2017-12-03T00:40:38.124Z,50.40
2017-12-03T00:43:06.943Z,47.50
2017-12-03T00:45:32.765Z,56.92
2017-12-03T00:47:58.617Z,55.47
2017-12-03T00:50:24.412Z,51.70
2017-12-03T00:52:50.253Z,46.50
2017-12-03T00:55:17.794Z,57.30
2017-12-03T00:57:43.687Z,85.05
2017-12-03T01:00:13.068Z,51.47
2017-12-03T01:02:38.892Z,48.35
2017-12-03T01:05:06.936Z,51.47
2017-12-03T01:07:32.832Z,54.30
2017-12-03T01:10:02.460Z,51.63
2017-12-03T01:12:28.346Z,58.10
2017-12-03T01:14:57.379Z,56.47
2017-12-03T01:17:23.298Z,48.45
2017-12-03T01:19:52.000Z,48.90
2017-12-03T01:22:17.804Z,48.13
2017-12-03T01:24:43.669Z,57.23
2017-12-03T01:27:09.516Z,51.60
2017-12-03T01:29:35.386Z,49.77
2017-12-03T01:32:04.399Z,52.33
2017-12-03T01:34:30.221Z,55.47
2017-12-03T01:36:57.960Z,54.60
2017-12-03T01:39:23.888Z,55.15
2017-12-03T01:41:52.850Z,56.83
2017-12-03T01:44:18.691Z,53.25
2017-12-03T01:46:47.541Z,56.53
2017-12-03T01:49:13.415Z,54.10
2017-12-03T01:51:42.552Z,50.97
2017-12-03T01:54:08.387Z,57.17
2017-12-03T01:56:37.705Z,45.83
2017-12-03T01:59:03.532Z,49.03
2017-12-03T02:01:29.336Z,47.00
2017-12-03T02:03:55.206Z,51.70
2017-12-03T02:06:21.040Z,39.47
2017-12-03T02:08:48.896Z,39.13
2017-12-03T02:11:14.748Z,39.47
2017-12-03T02:13:43.863Z,38.57
2017-12-03T02:16:09.675Z,38.85
2017-12-03T02:18:37.287Z,38.70
2017-12-03T02:21:03.095Z,32.50
2017-12-03T02:25:59.664Z,38.90
2017-12-03T02:28:27.190Z,39.40
2017-12-03T02:30:53.055Z,44.47
2017-12-03T02:33:22.426Z,45.37
2017-12-03T02:35:48.276Z,46.50
2017-12-03T02:38:14.079Z,56.10
2017-12-03T02:40:39.916Z,42.93
2017-12-03T02:43:05.731Z,46.47
2017-12-03T02:45:33.734Z,52.77
2017-12-03T02:47:59.559Z,48.75
2017-12-03T02:50:29.034Z,50.77
2017-12-03T02:52:54.874Z,52.53
2017-12-03T02:55:23.853Z,50.50
2017-12-03T02:57:49.668Z,45.92
2017-12-03T03:00:18.824Z,53.50
2017-12-03T03:02:44.636Z,49.50
2017-12-03T03:05:12.326Z,49.53
2017-12-03T03:07:38.128Z,48.15
2017-12-03T03:10:07.266Z,54.00
2017-12-03T03:12:33.117Z,48.28
2017-12-03T03:14:59.038Z,52.67
2017-12-03T03:17:24.880Z,45.70
2017-12-03T03:19:50.713Z,52.50
2017-12-03T03:22:20.224Z,48.13
2017-12-03T03:24:46.065Z,50.40
2017-12-03T03:27:15.093Z,50.83
2017-12-03T03:29:40.924Z,52.90
2017-12-03T03:32:08.274Z,45.70
2017-12-03T03:34:34.095Z,46.00
2017-12-03T03:37:03.649Z,49.53
2017-12-03T03:39:29.519Z,42.00
2017-12-03T03:41:58.414Z,38.20
2017-12-03T03:44:24.193Z,46.90
2017-12-03T03:46:52.062Z,53.63
2017-12-03T03:49:17.944Z,46.03
2017-12-03T03:51:43.764Z,45.10
2017-12-03T03:54:09.597Z,49.97
2017-12-03T03:56:35.478Z,48.57
2017-12-03T03:59:04.516Z,53.97
2017-12-03T04:01:30.294Z,53.17
2017-12-03T04:03:59.451Z,53.73
2017-12-03T04:06:25.316Z,47.80
2017-12-03T04:08:54.252Z,46.80
2017-12-03T04:11:20.105Z,55.95
2017-12-03T04:13:49.034Z,48.70
2017-12-03T04:16:14.862Z,47.95
2017-12-03T04:18:44.312Z,48.57
2017-12-03T04:21:10.171Z,59.85
2017-12-03T04:23:39.338Z,41.57
2017-12-03T04:26:05.152Z,55.17
2017-12-03T04:28:30.953Z,61.83
2017-12-03T04:30:56.755Z,51.30
2017-12-03T04:33:22.576Z,52.40
2017-12-03T04:35:50.139Z,48.33
2017-12-03T04:38:15.978Z,52.13
2017-12-03T04:40:44.896Z,53.93
2017-12-03T04:43:10.727Z,50.30
2017-12-03T04:45:38.787Z,50.87
2017-12-03T04:48:04.637Z,56.22
2017-12-03T04:50:33.216Z,54.73
2017-12-03T04:52:59.128Z,58.58
2017-12-03T04:57:55.806Z,46.45
2017-12-03T05:00:23.174Z,56.03
2017-12-03T05:02:49.029Z,47.80
2017-12-03T05:05:14.895Z,52.10
2017-12-03T05:07:40.752Z,52.53
2017-12-03T05:10:06.584Z,49.47
2017-12-03T05:12:36.486Z,58.60
2017-12-03T05:15:02.333Z,49.03
2017-12-03T05:17:29.405Z,47.20
2017-12-03T05:19:55.221Z,45.08
2017-12-03T05:22:24.630Z,50.00
2017-12-03T05:24:50.506Z,48.67
2017-12-03T05:27:19.515Z,57.90
2017-12-03T05:29:45.381Z,54.53
2017-12-03T05:32:14.468Z,54.40
2017-12-03T05:34:40.282Z,48.85
2017-12-03T05:37:09.433Z,54.60
2017-12-03T05:39:35.282Z,54.05
2017-12-03T05:42:01.147Z,54.67
2017-12-03T05:44:26.983Z,46.27
2017-12-03T05:46:52.808Z,53.20
2017-12-03T05:49:21.891Z,50.40
2017-12-03T05:51:47.674Z,36.25
2017-12-03T05:54:14.829Z,24.57
2017-12-03T05:56:40.647Z,30.88
2017-12-03T05:59:09.247Z,25.50
2017-12-03T06:01:35.080Z,26.23
2017-12-03T06:06:31.618Z,18.70
2017-12-03T06:08:59.142Z,21.10
2017-12-03T06:11:25.010Z,23.40
2017-12-03T06:13:54.155Z,19.63
2017-12-03T06:16:19.990Z,23.83
2017-12-03T06:18:45.878Z,18.60
2017-12-03T06:21:11.681Z,27.40
2017-12-03T06:23:37.534Z,25.73
2017-12-03T06:26:05.065Z,22.47
2017-12-03T06:28:30.883Z,20.50
2017-12-03T06:33:27.582Z,18.33
2017-12-03T06:35:54.848Z,20.83
2017-12-03T06:38:20.686Z,22.50
2017-12-03T06:40:49.945Z,26.43
2017-12-03T06:43:15.808Z,25.75
2017-12-03T06:45:45.492Z,23.70
2017-12-03T06:48:11.362Z,27.85
2017-12-03T06:50:40.479Z,24.87
2017-12-03T06:53:06.281Z,19.77
2017-12-03T06:55:32.144Z,21.77
2017-12-03T06:57:57.919Z,27.10
2017-12-03T07:00:23.751Z,25.67
2017-12-03T07:02:50.879Z,26.17
2017-12-03T07:05:16.736Z,25.50
2017-12-03T07:07:45.938Z,22.73
2017-12-03T07:10:11.749Z,23.15
2017-12-03T07:12:40.954Z,25.20
2017-12-03T07:15:06.770Z,24.95
2017-12-03T07:17:34.693Z,23.97
2017-12-03T07:20:00.489Z,20.98
2017-12-03T07:22:29.395Z,22.93
2017-12-03T07:24:55.221Z,21.52
2017-12-03T07:27:24.099Z,22.83
2017-12-03T07:29:49.964Z,26.62
2017-12-03T07:32:15.794Z,22.97
2017-12-03T07:34:41.637Z,24.40
2017-12-03T07:37:07.435Z,19.13
2017-12-03T07:39:36.542Z,21.17
2017-12-03T07:42:02.453Z,24.77
2017-12-03T07:44:31.439Z,25.70
2017-12-03T07:46:57.340Z,24.87
2017-12-03T07:49:26.363Z,23.63
2017-12-03T07:51:52.198Z,21.20
2017-12-03T07:54:21.412Z,17.80
2017-12-03T07:56:47.261Z,20.45
2017-12-03T07:59:16.368Z,25.33
2017-12-03T08:01:42.200Z,21.33
2017-12-03T08:04:11.152Z,26.20
2017-12-03T08:06:36.987Z,33.22
2017-12-03T08:09:02.869Z,21.33
2017-12-03T08:11:28.738Z,19.13
2017-12-03T08:13:54.575Z,29.00
2017-12-03T08:16:21.608Z,18.73
2017-12-03T08:18:47.439Z,21.98
2017-12-03T08:21:16.851Z,18.33
2017-12-03T08:23:42.703Z,18.92
2017-12-03T08:26:12.005Z,22.90
2017-12-03T08:28:37.825Z,18.37
2017-12-03T08:31:06.927Z,21.47
2017-12-03T08:33:32.790Z,24.20
2017-12-03T08:36:02.027Z,20.63
2017-12-03T08:38:27.882Z,21.20
2017-12-03T08:40:55.303Z,20.80
2017-12-03T08:43:21.138Z,23.48
2017-12-03T08:45:47.001Z,23.77
2017-12-03T08:48:12.811Z,26.60
2017-12-03T08:50:38.641Z,20.00
2017-12-03T08:53:07.840Z,24.57
2017-12-03T08:55:33.679Z,27.98
2017-12-03T08:58:02.638Z,30.30
2017-12-03T09:00:28.595Z,23.67
2017-12-03T09:02:56.289Z,26.77
2017-12-03T09:05:22.145Z,28.23
2017-12-03T09:07:51.096Z,22.47
2017-12-03T09:10:16.965Z,19.50
2017-12-03T09:12:45.947Z,22.37
2017-12-03T09:15:11.859Z,23.85
2017-12-03T09:17:40.791Z,25.00
2017-12-03T09:20:06.610Z,24.80
2017-12-03T09:22:32.491Z,23.23
2017-12-03T09:24:58.366Z,28.00
2017-12-03T09:27:24.282Z,26.80
2017-12-03T09:29:53.564Z,25.67
2017-12-03T09:32:19.369Z,33.72
2017-12-03T09:34:46.671Z,25.70
2017-12-03T09:37:12.472Z,26.05
2017-12-03T09:39:41.087Z,32.27
2017-12-03T09:42:06.908Z,28.50
2017-12-03T09:44:35.607Z,26.07
2017-12-03T09:47:01.437Z,25.75
2017-12-03T09:51:58.139Z,22.15
2017-12-03T09:54:25.760Z,21.50
2017-12-03T09:56:51.584Z,27.60
2017-12-03T09:59:17.446Z,23.17
2017-12-03T10:01:43.292Z,21.97
2017-12-03T10:04:09.103Z,22.13
2017-12-03T10:06:37.964Z,23.43
2017-12-03T10:09:03.778Z,24.63
2017-12-03T10:11:32.738Z,24.50
2017-12-03T10:13:58.555Z,24.02
2017-12-03T10:16:27.449Z,26.00
2017-12-03T10:18:53.303Z,25.65
2017-12-03T10:21:22.818Z,30.63
2017-12-03T10:23:48.616Z,28.77
2017-12-03T10:26:17.675Z,35.33
2017-12-03T10:28:43.529Z,26.20
2017-12-03T10:31:12.446Z,28.60
2017-12-03T10:33:38.265Z,22.02
2017-12-03T10:36:04.101Z,25.80
2017-12-03T10:38:29.932Z,31.43
2017-12-03T10:40:55.728Z,28.00
2017-12-03T10:43:22.617Z,26.43
2017-12-03T10:45:48.435Z,22.62
2017-12-03T10:48:17.140Z,27.30
2017-12-03T10:50:42.976Z,27.08
2017-12-03T10:53:12.371Z,24.83
2017-12-03T10:55:38.191Z,29.25
2017-12-03T10:58:07.407Z,20.53
2017-12-03T11:00:33.190Z,21.60
2017-12-03T11:03:01.304Z,26.77
2017-12-03T11:05:27.103Z,23.45
2017-12-03T11:07:59.339Z,21.67
2017-12-03T11:10:25.126Z,22.70
2017-12-03T11:12:50.936Z,22.60
2017-12-03T11:15:16.813Z,17.37
2017-12-03T11:17:45.656Z,20.57
2017-12-03T11:20:11.511Z,21.02
2017-12-03T11:22:37.420Z,25.10
2017-12-03T11:25:03.266Z,25.73
2017-12-03T11:27:29.095Z,18.00
2017-12-03T11:29:54.892Z,18.23
2017-12-03T11:32:20.761Z,16.90
2017-12-03T11:34:46.597Z,15.73
2017-12-03T11:37:12.463Z,18.70
2017-12-03T11:39:38.298Z,19.37
2017-12-03T11:42:04.117Z,18.60
2017-12-03T11:44:29.969Z,21.93
2017-12-03T11:46:55.752Z,19.30
2017-12-03T11:49:21.590Z,21.90
2017-12-03T11:51:47.410Z,23.37
2017-12-03T11:54:17.169Z,15.27
2017-12-03T11:56:46.365Z,21.75
2017-12-03T11:59:12.179Z,18.87
2017-12-03T12:01:38.014Z,31.93
2017-12-03T12:04:03.928Z,27.00
2017-12-03T12:06:29.807Z,25.77
2017-12-03T12:08:55.647Z,24.33
2017-12-03T12:11:21.480Z,18.83
2017-12-03T12:13:49.041Z,21.90
2017-12-03T12:16:14.872Z,18.75
2017-12-03T12:21:11.580Z,23.75
2017-12-03T12:23:38.948Z,21.63
2017-12-03T12:26:05.794Z,19.62
2017-12-03T12:28:34.600Z,20.70
2017-12-03T12:31:00.379Z,21.48
2017-12-03T12:33:28.918Z,23.17
2017-12-03T12:35:54.724Z,23.85
2017-12-03T12:38:23.122Z,22.43
2017-12-03T12:40:48.953Z,18.27
2017-12-03T12:43:17.716Z,21.10
2017-12-03T12:45:43.553Z,18.15
2017-12-03T12:48:12.542Z,25.57
2017-12-03T12:50:38.479Z,35.05
2017-12-03T12:53:08.086Z,21.30
2017-12-03T12:55:33.903Z,22.37
2017-12-03T12:58:03.222Z,21.87
2017-12-03T13:00:29.065Z,23.98
2017-12-03T13:02:54.910Z,22.60
2017-12-03T13:05:20.780Z,27.03
2017-12-03T13:07:46.622Z,29.20
2017-12-03T13:10:14.163Z,30.13
2017-12-03T13:12:40.001Z,26.15
2017-12-03T13:15:08.031Z,28.50
2017-12-03T13:17:33.831Z,23.33
2017-12-03T13:20:00.393Z,27.40
2017-12-03T13:22:27.702Z,26.42
2017-12-03T13:24:53.605Z,32.30
2017-12-03T13:27:20.182Z,34.80
2017-12-03T13:29:46.021Z,29.85
2017-12-03T13:32:15.106Z,30.50
2017-12-03T13:34:40.969Z,24.12
2017-12-03T13:37:09.655Z,29.23
2017-12-03T13:39:35.479Z,26.58
2017-12-03T13:42:01.317Z,22.73
2017-12-03T13:44:27.140Z,25.97
2017-12-03T13:46:52.970Z,27.30
2017-12-03T13:49:21.905Z,30.13
2017-12-03T13:51:47.775Z,27.73
2017-12-03T13:54:17.229Z,29.60
2017-12-03T13:56:43.049Z,28.67
2017-12-03T13:59:12.406Z,26.37
2017-12-03T14:01:38.317Z,32.33
2017-12-03T14:04:05.191Z,29.10
2017-12-03T14:06:31.074Z,30.50
2017-12-03T14:09:00.361Z,26.90
2017-12-03T14:11:26.180Z,35.67
2017-12-03T14:13:55.670Z,30.27
2017-12-03T14:16:21.538Z,35.15
2017-12-03T14:18:51.303Z,28.00
2017-12-03T14:21:17.135Z,37.08
2017-12-03T14:23:44.396Z,29.70
2017-12-03T14:26:10.191Z,39.35
2017-12-03T14:28:39.519Z,38.07
2017-12-03T14:31:05.322Z,37.72
2017-12-03T14:33:33.509Z,41.33
2017-12-03T14:35:59.283Z,39.33
2017-12-03T14:38:27.828Z,32.37
2017-12-03T14:40:53.674Z,37.17
2017-12-03T14:45:50.399Z,35.28
2017-12-03T14:48:18.152Z,31.70
2017-12-03T14:50:43.994Z,28.48
2017-12-03T14:53:09.823Z,32.27
2017-12-03T14:55:35.621Z,32.03
2017-12-03T14:58:01.411Z,31.73
2017-12-03T15:00:30.277Z,26.40
2017-12-03T15:02:56.071Z,33.22
2017-12-03T15:05:25.348Z,33.33
2017-12-03T15:07:51.192Z,31.08
2017-12-03T15:10:19.768Z,31.27
2017-12-03T15:12:45.570Z,34.97
2017-12-03T15:15:14.427Z,31.90
2017-12-03T15:17:40.373Z,38.13
2017-12-03T15:20:08.358Z,30.90
2017-12-03T15:22:34.196Z,26.25
2017-12-03T15:25:04.423Z,34.03
2017-12-03T15:27:30.284Z,33.53
2017-12-03T15:29:56.111Z,28.70
2017-12-03T15:32:21.926Z,27.23
2017-12-03T15:34:47.753Z,30.43
2017-12-03T15:37:15.366Z,33.33
2017-12-03T15:39:41.235Z,30.67
2017-12-03T15:42:09.306Z,35.53
2017-12-03T15:44:35.155Z,27.98
2017-12-03T15:47:04.480Z,32.63
2017-12-03T15:49:30.370Z,35.03
2017-12-03T15:51:59.585Z,36.00
2017-12-03T15:54:25.418Z,27.80
2017-12-03T15:56:53.728Z,42.30
2017-12-03T15:59:19.608Z,37.67
2017-12-03T16:01:48.662Z,39.60
2017-12-03T16:04:14.501Z,31.15
2017-12-03T16:06:40.344Z,35.90
2017-12-03T16:09:06.174Z,41.67
2017-12-03T16:11:32.041Z,33.37
2017-12-03T16:14:01.084Z,29.90
2017-12-03T16:16:26.934Z,32.05
2017-12-03T16:18:54.542Z,35.70
2017-12-03T16:21:20.377Z,36.00
2017-12-03T16:23:49.604Z,42.27
2017-12-03T16:26:15.492Z,30.08
2017-12-03T16:28:44.095Z,32.97
2017-12-03T16:31:09.941Z,29.92
2017-12-03T16:33:38.761Z,28.30
2017-12-03T16:38:54.569Z,28.10
2017-12-03T16:55:53.061Z,28.35
2017-12-03T16:58:18.899Z,33.47
2017-12-03T17:00:44.750Z,33.97
2017-12-03T17:03:10.544Z,28.80
2017-12-03T17:05:36.378Z,40.67
2017-12-03T17:08:02.270Z,28.00
2017-12-03T17:10:28.112Z,34.23
2017-12-03T17:12:54.725Z,34.63
2017-12-03T17:15:20.521Z,31.90
2017-12-03T17:17:46.323Z,32.90
2017-12-03T17:20:12.175Z,38.40
2017-12-03T17:22:38.008Z,33.33
2017-12-03T17:25:03.818Z,30.70
2017-12-03T17:27:30.652Z,51.37
2017-12-03T17:29:56.484Z,46.30
2017-12-03T17:32:24.873Z,44.27
2017-12-03T17:34:50.715Z,26.62
2017-12-03T17:39:47.478Z,26.15
2017-12-03T17:42:15.030Z,26.00
2017-12-03T17:44:41.097Z,30.77
2017-12-03T17:47:10.667Z,31.33
2017-12-03T17:49:36.495Z,32.10
2017-12-03T17:52:04.152Z,33.20
2017-12-03T17:54:29.973Z,29.05
2017-12-03T17:56:55.824Z,30.80
2017-12-03T17:59:21.622Z,24.13
2017-12-03T18:01:47.407Z,33.07
2017-12-03T18:04:16.868Z,30.97
2017-12-03T18:06:42.661Z,25.10
2017-12-03T18:09:11.504Z,24.43
2017-12-03T18:11:37.290Z,24.87
2017-12-03T18:14:06.642Z,28.53
2017-12-03T18:16:32.488Z,30.17
2017-12-03T18:19:00.058Z,29.00
2017-12-03T18:21:25.866Z,39.65
2017-12-03T18:23:55.185Z,30.07
2017-12-03T18:26:21.056Z,27.50
2017-12-03T18:28:49.614Z,27.10
2017-12-03T18:31:15.436Z,29.58
2017-12-03T18:33:41.241Z,28.20
2017-12-03T18:36:07.092Z,29.90
2017-12-03T18:38:32.921Z,28.13
2017-12-03T18:41:02.265Z,25.90
2017-12-03T18:43:28.108Z,25.98
2017-12-03T18:45:57.833Z,26.63
2017-12-03T18:48:23.659Z,22.77
2017-12-03T18:50:51.363Z,26.30
2017-12-03T18:53:17.174Z,30.00
2017-12-03T18:55:46.200Z,28.30
2017-12-03T18:58:12.068Z,30.50
2017-12-03T19:00:41.155Z,24.37
2017-12-03T19:03:06.973Z,23.85
2017-12-03T19:05:36.376Z,27.87
2017-12-03T19:08:02.181Z,26.80
2017-12-03T19:10:28.012Z,21.80
2017-12-03T19:12:53.832Z,27.57
2017-12-03T19:15:19.680Z,27.80
2017-12-03T19:17:47.460Z,26.80
2017-12-03T19:20:13.288Z,25.12
2017-12-03T19:22:43.097Z,22.00
2017-12-03T19:25:08.876Z,22.85
2017-12-03T19:27:36.221Z,29.53
2017-12-03T19:30:02.037Z,34.15
2017-12-03T19:32:30.691Z,27.37
2017-12-03T19:34:56.473Z,23.85
2017-12-03T19:37:26.235Z,24.43
2017-12-03T19:39:52.069Z,22.20
2017-12-03T19:42:21.609Z,20.37
2017-12-03T19:44:47.442Z,22.20
2017-12-03T19:47:13.211Z,21.13
2017-12-03T19:49:39.024Z,23.33
2017-12-03T19:52:04.865Z,28.07
2017-12-03T19:54:32.023Z,26.97
2017-12-03T19:56:57.848Z,29.98
2017-12-03T19:59:27.480Z,22.10
2017-12-03T20:01:53.310Z,21.20
2017-12-03T20:04:22.773Z,19.97
2017-12-03T20:06:48.637Z,21.77
2017-12-03T20:09:16.276Z,22.33
2017-12-03T20:11:42.186Z,25.65
2017-12-03T20:14:11.143Z,19.13
2017-12-03T20:16:36.989Z,22.77
2017-12-03T20:19:06.208Z,21.20
2017-12-03T20:21:32.060Z,24.25
2017-12-03T20:23:57.903Z,22.53
2017-12-03T20:26:23.709Z,24.07
2017-12-03T20:28:49.578Z,23.53
2017-12-03T20:31:17.292Z,22.43
2017-12-03T20:33:43.100Z,21.83
2017-12-03T20:36:12.743Z,23.23
2017-12-03T20:38:38.612Z,23.10
2017-12-03T20:41:08.073Z,25.53
2017-12-03T20:43:33.901Z,27.25
2017-12-03T20:46:01.476Z,23.73
2017-12-03T20:48:27.248Z,23.48
2017-12-03T20:50:56.646Z,23.47
2017-12-03T20:53:22.460Z,23.05
2017-12-03T20:55:51.730Z,23.80
2017-12-03T20:58:17.615Z,22.60
2017-12-03T21:00:43.473Z,22.07
2017-12-03T21:03:09.282Z,19.20
2017-12-03T21:05:35.083Z,19.80
2017-12-03T21:08:04.394Z,21.13
2017-12-03T21:10:30.226Z,25.10
2017-12-03T21:12:57.215Z,20.73
2017-12-03T21:15:23.239Z,21.35
2017-12-03T21:17:52.260Z,21.23
2017-12-03T21:20:18.111Z,33.67
2017-12-03T21:22:47.495Z,23.40
2017-12-03T21:25:13.333Z,21.20
2017-12-03T21:27:42.970Z,20.00
2017-12-03T21:30:08.796Z,19.85
2017-12-03T21:32:36.144Z,19.13
2017-12-03T21:35:01.979Z,19.83
2017-12-03T21:37:27.821Z,13.27
2017-12-03T21:39:53.646Z,17.37
2017-12-03T21:42:19.423Z,15.60
2017-12-03T21:44:49.033Z,14.43
2017-12-03T21:47:14.875Z,16.02
2017-12-03T21:49:43.038Z,12.67
2017-12-03T21:52:08.896Z,16.65
2017-12-03T21:54:38.592Z,17.97
2017-12-03T21:57:04.436Z,15.80
2017-12-03T21:59:33.544Z,13.90
2017-12-03T22:01:59.325Z,16.40
2017-12-03T22:04:26.965Z,16.87
2017-12-03T22:06:52.799Z,17.05
2017-12-03T22:09:21.943Z,15.60
2017-12-03T22:11:47.740Z,10.15
2017-12-03T22:14:13.560Z,16.57
2017-12-03T22:16:39.397Z,13.77
2017-12-03T22:19:05.198Z,29.90
2017-12-03T22:21:34.981Z,16.47
2017-12-03T22:24:00.822Z,17.00
2017-12-03T22:26:28.118Z,17.53
2017-12-03T22:28:53.930Z,17.08
2017-12-03T22:31:22.888Z,14.80
2017-12-03T22:33:48.724Z,9.40
2017-12-03T22:36:17.727Z,11.83
2017-12-03T22:38:43.564Z,14.48
2017-12-03T22:41:12.398Z,16.13
2017-12-03T22:43:38.266Z,13.55
2017-12-03T22:46:07.267Z,13.33
2017-12-03T22:48:33.096Z,11.32
2017-12-03T22:50:58.940Z,11.77
2017-12-03T22:53:24.734Z,16.13
2017-12-03T22:55:50.595Z,10.87
2017-12-03T22:58:18.186Z,11.97
2017-12-03T23:00:44.056Z,11.57
2017-12-03T23:05:40.761Z,12.57
2017-12-03T23:08:07.886Z,9.90
2017-12-03T23:10:33.673Z,12.10
2017-12-03T23:13:02.398Z,10.57
2017-12-03T23:15:28.238Z,10.10
2017-12-03T23:20:24.781Z,11.55
2017-12-03T23:22:52.446Z,15.77
2017-12-03T23:25:18.311Z,10.27
2017-12-03T23:27:44.217Z,9.93
2017-12-03T23:30:10.097Z,13.30
2017-12-03T23:32:35.905Z,12.37
2017-12-03T23:35:03.444Z,11.77
2017-12-03T23:37:29.292Z,12.70
2017-12-03T23:42:26.106Z,13.10
2017-12-03T23:44:53.798Z,12.57
2017-12-03T23:47:19.636Z,18.05
2017-12-03T23:49:49.349Z,11.03
2017-12-03T23:52:15.210Z,8.23
2017-12-03T23:54:44.239Z,10.03
2017-12-03T23:57:10.063Z,11.55
2017-12-03T23:59:38.982Z,8.80
